createdAt,value
2022-09-24T00:01:47.771Z,100515.59
2022-09-24T00:04:15.507Z,100505.63
2022-09-24T00:06:45.602Z,100511.28
2022-09-24T00:09:15.135Z,100505.28
2022-09-24T00:11:45.320Z,100498.94
2022-09-24T00:14:13.930Z,100500.31
2022-09-24T00:16:44.261Z,100492.50
2022-09-24T00:19:13.781Z,100490.00
2022-09-24T00:21:42.852Z,100485.81
2022-09-24T00:24:33.738Z,100487.78
2022-09-24T00:27:02.810Z,100484.63
2022-09-24T00:29:31.295Z,100488.78
2022-09-24T00:32:00.371Z,100486.28
2022-09-24T00:34:28.352Z,100490.91
2022-09-24T00:36:56.095Z,100494.56
2022-09-24T00:39:23.816Z,100504.19
2022-09-24T00:41:51.543Z,100505.34
2022-09-24T00:44:59.111Z,100502.53
2022-09-24T00:47:35.827Z,100507.53
2022-09-24T00:50:23.293Z,100512.03
2022-09-24T00:52:55.748Z,100508.84
2022-09-24T00:55:24.911Z,100494.25
2022-09-24T00:57:56.343Z,100504.56
2022-09-24T01:00:24.599Z,100492.97
2022-09-24T01:02:59.388Z,100493.63
2022-09-24T01:05:27.107Z,100495.31
2022-09-24T01:07:55.001Z,100491.31
2022-09-24T01:10:47.931Z,100493.31
2022-09-24T01:13:30.055Z,100491.66
2022-09-24T01:16:04.175Z,100474.34
2022-09-24T01:18:42.174Z,100470.72
2022-09-24T01:21:32.996Z,100469.03
2022-09-24T01:24:15.254Z,100457.56
2022-09-24T01:26:56.497Z,100463.56
2022-09-24T01:29:42.055Z,100460.06
2022-09-24T01:32:18.377Z,100463.03
2022-09-24T01:34:50.609Z,100466.53
2022-09-24T01:37:23.207Z,100463.03
2022-09-24T01:39:54.743Z,100467.38
2022-09-24T01:42:25.003Z,100442.25
2022-09-24T01:44:55.839Z,100455.06
2022-09-24T01:47:34.390Z,100447.09
2022-09-24T01:50:03.005Z,100443.78
2022-09-24T01:52:35.331Z,100445.75
2022-09-24T01:55:06.878Z,100446.72
2022-09-24T01:57:40.018Z,100448.41
2022-09-24T02:00:13.233Z,100453.88
2022-09-24T02:02:45.406Z,100453.88
2022-09-24T02:05:18.151Z,100452.56
2022-09-24T02:07:51.931Z,100451.41
2022-09-24T02:10:21.639Z,100447.72
2022-09-24T02:12:54.260Z,100449.88
2022-09-24T02:15:32.425Z,100455.69
2022-09-24T02:18:04.737Z,100445.06
2022-09-24T02:20:35.685Z,100449.06
2022-09-24T02:23:06.035Z,100454.38
2022-09-24T02:25:39.023Z,100440.09
2022-09-24T02:28:07.148Z,100443.75
2022-09-24T02:30:42.279Z,100431.97
2022-09-24T02:33:27.405Z,100430.78
2022-09-24T02:35:55.352Z,100420.97
2022-09-24T02:38:24.080Z,100433.59
2022-09-24T02:40:53.076Z,100428.47
2022-09-24T02:43:20.910Z,100422.50
2022-09-24T02:45:49.995Z,100420.66
2022-09-24T02:48:17.963Z,100420.50
2022-09-24T02:53:26.712Z,100417.19
2022-09-24T02:55:54.392Z,100412.16
2022-09-24T02:58:22.094Z,100415.28
2022-09-24T03:00:49.788Z,100410.13
2022-09-24T03:03:17.517Z,100408.13
2022-09-24T03:05:45.915Z,100417.25
2022-09-24T03:08:13.844Z,100414.28
2022-09-24T03:10:42.868Z,100410.78
2022-09-24T03:13:11.246Z,100402.47
2022-09-24T03:15:38.978Z,100414.38
2022-09-24T03:18:06.953Z,100411.41
2022-09-24T03:20:34.672Z,100401.78
2022-09-24T03:23:02.349Z,100395.94
2022-09-24T03:25:30.033Z,100393.66
2022-09-24T03:27:59.095Z,100392.34
2022-09-24T03:30:44.321Z,100398.50
2022-09-24T03:33:12.029Z,100399.13
2022-09-24T03:35:39.742Z,100390.84
2022-09-24T03:38:07.444Z,100385.22
2022-09-24T03:40:35.202Z,100383.25
2022-09-24T03:43:04.292Z,100388.56
2022-09-24T03:45:32.029Z,100382.72
2022-09-24T03:47:59.723Z,100382.56
2022-09-24T03:50:27.428Z,100381.56
2022-09-24T03:52:55.081Z,100378.91
2022-09-24T03:55:22.759Z,100375.94
2022-09-24T03:57:50.458Z,100378.75
2022-09-24T04:00:19.611Z,100377.94
2022-09-24T04:02:47.539Z,100378.59
2022-09-24T04:05:15.393Z,100374.44
2022-09-24T04:07:44.016Z,100364.28
2022-09-24T04:10:12.600Z,100349.31
2022-09-24T04:12:40.326Z,100385.25
2022-09-24T04:15:08.904Z,100377.59
2022-09-24T04:17:37.911Z,100382.91
2022-09-24T04:20:06.231Z,100373.94
2022-09-24T04:22:33.907Z,100369.63
2022-09-24T04:25:03.847Z,100369.63
2022-09-24T04:27:31.547Z,100366.66
2022-09-24T04:29:59.217Z,100366.34
2022-09-24T04:32:27.264Z,100369.97
2022-09-24T04:34:56.307Z,100360.34
2022-09-24T04:37:24.010Z,100363.00
2022-09-24T04:39:51.704Z,100361.50
2022-09-24T04:42:20.068Z,100364.00
2022-09-24T04:44:48.844Z,100360.19
2022-09-24T04:47:18.799Z,100354.34
2022-09-24T04:49:46.655Z,100364.66
2022-09-24T04:52:16.368Z,100362.00
2022-09-24T04:54:46.981Z,100367.78
2022-09-24T04:57:15.616Z,100333.38
2022-09-24T04:59:44.284Z,100365.31
2022-09-24T05:02:12.370Z,100366.31
2022-09-24T05:04:40.522Z,100370.94
2022-09-24T05:07:08.619Z,100369.28
2022-09-24T05:09:38.033Z,100368.28
2022-09-24T05:12:06.684Z,100347.13
2022-09-24T05:14:35.731Z,100372.56
2022-09-24T05:17:04.589Z,100370.94
2022-09-24T05:19:32.277Z,100365.13
2022-09-24T05:21:59.972Z,100368.75
2022-09-24T05:24:27.667Z,100366.25
2022-09-24T05:27:11.953Z,100361.25
2022-09-24T05:29:40.476Z,100360.78
2022-09-24T05:32:09.908Z,100364.75
2022-09-24T05:34:37.641Z,100363.09
2022-09-24T05:37:05.525Z,100361.63
2022-09-24T05:39:34.382Z,100361.25
2022-09-24T05:42:07.761Z,100365.25
2022-09-24T05:44:37.252Z,100354.78
2022-09-24T05:47:04.969Z,100372.22
2022-09-24T05:49:32.995Z,100372.22
2022-09-24T05:52:01.229Z,100373.03
2022-09-24T05:54:29.010Z,100382.00
2022-09-24T05:56:56.902Z,100384.00
2022-09-24T05:59:25.967Z,100381.81
2022-09-24T06:01:54.324Z,100386.16
2022-09-24T06:04:22.103Z,100386.16
2022-09-24T06:06:50.298Z,100382.31
2022-09-24T06:09:19.891Z,100387.63
2022-09-24T06:11:50.499Z,100383.16
2022-09-24T06:14:18.741Z,100382.84
2022-09-24T06:16:47.779Z,100386.81
2022-09-24T06:19:15.484Z,100387.94
2022-09-24T06:21:43.179Z,100382.31
2022-09-24T06:24:11.235Z,100385.31
2022-09-24T06:26:38.969Z,100379.84
2022-09-24T06:29:07.007Z,100391.16
2022-09-24T06:31:34.939Z,100389.84
2022-09-24T06:34:04.140Z,100393.03
2022-09-24T06:36:31.813Z,100400.00
2022-09-24T06:38:59.636Z,100398.84
2022-09-24T06:41:27.512Z,100395.19
2022-09-24T06:43:55.543Z,100391.88
2022-09-24T06:46:25.696Z,100403.00
2022-09-24T06:48:54.829Z,100399.19
2022-09-24T06:51:23.891Z,100402.53
2022-09-24T06:53:52.543Z,100402.69
2022-09-24T06:56:20.382Z,100409.88
2022-09-24T06:58:48.103Z,100412.00
2022-09-24T07:01:15.860Z,100404.88
2022-09-24T07:03:43.599Z,100412.16
2022-09-24T07:06:11.351Z,100408.22
2022-09-24T07:08:40.488Z,100413.69
2022-09-24T07:11:08.884Z,100422.00
2022-09-24T07:13:36.582Z,100422.19
2022-09-24T07:16:04.336Z,100420.16
2022-09-24T07:18:32.066Z,100426.16
2022-09-24T07:20:59.697Z,100431.31
2022-09-24T07:23:27.888Z,100426.84
2022-09-24T07:25:58.174Z,100423.56
2022-09-24T07:28:26.261Z,100428.22
2022-09-24T07:30:59.311Z,100430.25
2022-09-24T07:33:27.112Z,100427.56
2022-09-24T07:35:57.597Z,100428.78
2022-09-24T07:38:25.323Z,100428.59
2022-09-24T07:40:54.203Z,100429.25
2022-09-24T07:43:23.589Z,100428.94
2022-09-24T07:45:51.290Z,100430.91
2022-09-24T07:48:19.100Z,100433.94
2022-09-24T07:50:46.812Z,100429.25
2022-09-24T07:53:16.786Z,100431.44
2022-09-24T07:55:45.493Z,100439.25
2022-09-24T07:58:15.087Z,100437.81
2022-09-24T08:00:44.378Z,100436.31
2022-09-24T08:03:12.196Z,100448.31
2022-09-24T08:05:44.196Z,100442.16
2022-09-24T08:08:11.986Z,100441.00
2022-09-24T08:10:40.255Z,100444.34
2022-09-24T08:13:08.805Z,100446.00
2022-09-24T08:15:36.601Z,100439.84
2022-09-24T08:18:07.005Z,100450.97
2022-09-24T08:20:34.952Z,100446.00
2022-09-24T08:23:03.255Z,100445.66
2022-09-24T08:25:31.783Z,100441.53
2022-09-24T08:28:02.593Z,100443.19
2022-09-24T08:30:30.970Z,100449.16
2022-09-24T08:32:58.895Z,100445.03
2022-09-24T08:35:28.031Z,100451.00
2022-09-24T08:37:55.834Z,100449.69
2022-09-24T08:40:26.969Z,100445.03
2022-09-24T08:42:58.916Z,100453.84
2022-09-24T08:45:44.405Z,100442.03
2022-09-24T08:48:16.704Z,100449.22
2022-09-24T08:50:52.179Z,100444.41
2022-09-24T08:53:26.333Z,100447.38
2022-09-24T08:55:57.048Z,100437.06
2022-09-24T08:58:39.249Z,100452.69
2022-09-24T09:01:22.296Z,100449.41
2022-09-24T09:03:54.940Z,100450.72
2022-09-24T09:06:45.871Z,100452.38
2022-09-24T09:09:17.468Z,100454.03
2022-09-24T09:11:49.419Z,100452.75
2022-09-24T09:14:20.526Z,100451.38
2022-09-24T09:16:52.085Z,100452.06
2022-09-24T09:19:24.461Z,100454.91
2022-09-24T09:21:58.311Z,100446.38
2022-09-24T09:24:34.213Z,100454.03
2022-09-24T09:27:02.518Z,100450.38
2022-09-24T09:29:30.744Z,100449.25
2022-09-24T09:32:09.924Z,100447.06
2022-09-24T09:34:50.480Z,100452.91
2022-09-24T09:37:27.940Z,100448.72
2022-09-24T09:40:04.936Z,100450.88
2022-09-24T09:42:36.180Z,100450.69
2022-09-24T09:45:16.188Z,100453.88
2022-09-24T09:47:48.982Z,100447.50
2022-09-24T09:50:24.725Z,100452.50
2022-09-24T09:52:53.949Z,100451.00
2022-09-24T09:55:27.431Z,100453.78
2022-09-24T09:58:10.981Z,100450.44
2022-09-24T10:00:38.863Z,100448.28
2022-09-24T10:03:06.681Z,100450.94
2022-09-24T10:05:35.572Z,100454.28
2022-09-24T10:08:04.651Z,100457.94
2022-09-24T10:10:32.398Z,100457.94
2022-09-24T10:13:10.324Z,100447.94
2022-09-24T10:15:50.034Z,100450.59
2022-09-24T10:18:18.916Z,100454.59
2022-09-24T10:20:49.573Z,100455.28
2022-09-24T10:23:23.340Z,100426.50
2022-09-24T10:25:53.286Z,100458.63
2022-09-24T10:28:39.520Z,100454.94
2022-09-24T10:31:13.497Z,100450.94
2022-09-24T10:33:43.884Z,100450.31
2022-09-24T10:36:17.216Z,100451.66
2022-09-24T10:38:46.327Z,100455.00
2022-09-24T10:41:25.977Z,100448.00
2022-09-24T10:43:54.360Z,100447.00
2022-09-24T10:46:47.297Z,100457.78
2022-09-24T10:49:27.447Z,100453.94
2022-09-24T10:52:08.640Z,100458.28
2022-09-24T10:54:56.200Z,100445.94
2022-09-24T10:57:32.382Z,100454.94
2022-09-24T11:00:08.822Z,100452.94
2022-09-24T11:03:19.971Z,100449.63
2022-09-24T11:05:55.301Z,100444.63
2022-09-24T11:08:37.595Z,100446.63
2022-09-24T11:11:22.642Z,100442.97
2022-09-24T11:14:02.087Z,100442.78
2022-09-24T11:16:49.138Z,100437.28
2022-09-24T11:19:30.143Z,100441.28
2022-09-24T11:22:08.992Z,100434.78
2022-09-24T11:24:48.014Z,100437.13
2022-09-24T11:27:37.513Z,100439.94
2022-09-24T11:30:13.094Z,100439.56
2022-09-24T11:32:53.657Z,100443.41
2022-09-24T11:35:48.151Z,100436.88
2022-09-24T11:38:19.107Z,100433.22
2022-09-24T11:41:05.565Z,100435.72
2022-09-24T11:43:50.480Z,100430.22
2022-09-24T11:46:28.296Z,100428.72
2022-09-24T11:49:08.703Z,100430.88
2022-09-24T11:51:50.958Z,100421.84
2022-09-24T11:54:25.972Z,100426.53
2022-09-24T11:57:01.926Z,100419.16
2022-09-24T11:59:39.877Z,100415.88
2022-09-24T12:02:19.252Z,100423.81
2022-09-24T12:04:55.494Z,100423.13
2022-09-24T12:07:33.447Z,100403.97
2022-09-24T12:10:05.619Z,100422.09
2022-09-24T12:12:38.231Z,100425.59
2022-09-24T12:15:18.274Z,100421.75
2022-09-24T12:17:52.739Z,100419.09
2022-09-24T12:20:24.524Z,100416.59
2022-09-24T12:23:00.155Z,100414.59
2022-09-24T12:25:30.305Z,100407.06
2022-09-24T12:28:00.196Z,100409.59
2022-09-24T12:30:54.762Z,100410.44
2022-09-24T12:33:30.511Z,100405.56
2022-09-24T12:36:06.544Z,100407.41
2022-09-24T12:38:39.400Z,100402.44
2022-09-24T12:41:28.119Z,100403.09
2022-09-24T12:44:01.585Z,100408.41
2022-09-24T12:46:34.598Z,100407.59
2022-09-24T12:49:06.007Z,100403.09
2022-09-24T12:51:39.319Z,100414.75
2022-09-24T12:54:09.405Z,100405.09
2022-09-24T12:56:37.354Z,100405.91
2022-09-24T12:59:05.559Z,100402.44
2022-09-24T13:01:35.758Z,100403.09
2022-09-24T13:04:28.040Z,100406.94
2022-09-24T13:06:55.971Z,100395.25
2022-09-24T13:09:38.915Z,100401.25
2022-09-24T13:12:21.623Z,100404.75
2022-09-24T13:14:57.089Z,100404.28
2022-09-24T13:17:26.332Z,100397.47
2022-09-24T13:19:58.933Z,100399.47
2022-09-24T13:22:30.145Z,100399.16
2022-09-24T13:25:22.581Z,100397.00
2022-09-24T13:28:02.051Z,100398.22
2022-09-24T13:30:37.950Z,100396.38
2022-09-24T13:33:24.877Z,100391.88
2022-09-24T13:36:05.747Z,100396.19
2022-09-24T13:38:36.775Z,100392.72
2022-09-24T13:41:13.993Z,100391.88
2022-09-24T13:43:49.238Z,100401.53
2022-09-24T13:46:19.135Z,100401.53
2022-09-24T13:48:52.501Z,100395.81
2022-09-24T13:51:26.336Z,100393.81
2022-09-24T13:54:00.460Z,100395.31
2022-09-24T13:56:28.185Z,100399.47
2022-09-24T13:59:06.152Z,100371.38
2022-09-24T14:01:39.999Z,100393.59
2022-09-24T14:04:18.381Z,100396.41
2022-09-24T14:06:50.117Z,100396.31
2022-09-24T14:09:28.084Z,100394.63
2022-09-24T14:11:58.490Z,100391.56
2022-09-24T14:14:27.939Z,100394.72
2022-09-24T14:17:06.364Z,100392.72
2022-09-24T14:19:36.094Z,100395.69
2022-09-24T14:22:06.094Z,100385.19
2022-09-24T14:24:36.706Z,100382.69
2022-09-24T14:27:08.570Z,100382.69
2022-09-24T14:29:46.975Z,100383.53
2022-09-24T14:32:23.893Z,100389.03
2022-09-24T14:34:57.009Z,100382.03
2022-09-24T14:37:29.437Z,100381.19
2022-09-24T14:40:04.749Z,100381.84
2022-09-24T14:42:38.385Z,100380.56
2022-09-24T14:45:09.461Z,100385.72
2022-09-24T14:47:38.236Z,100385.88
2022-09-24T14:50:29.556Z,100385.06
2022-09-24T14:53:00.608Z,100384.22
2022-09-24T14:55:38.011Z,100384.22
2022-09-24T14:58:05.896Z,100381.91
2022-09-24T15:00:38.818Z,100384.97
2022-09-24T15:03:12.357Z,100380.81
2022-09-24T15:05:41.597Z,100385.66
2022-09-24T15:08:27.969Z,100385.34
2022-09-24T15:10:57.894Z,100380.72
2022-09-24T15:13:28.141Z,100378.06
2022-09-24T15:16:04.140Z,100372.72
2022-09-24T15:18:32.155Z,100378.41
2022-09-24T15:21:03.315Z,100382.09
2022-09-24T15:23:31.130Z,100379.72
2022-09-24T15:25:58.828Z,100377.06
2022-09-24T15:28:29.058Z,100379.44
2022-09-24T15:30:57.773Z,100381.47
2022-09-24T15:33:25.684Z,100384.31
2022-09-24T15:35:53.435Z,100375.81
2022-09-24T15:38:22.589Z,100375.97
2022-09-24T15:40:53.651Z,100367.66
2022-09-24T15:43:23.240Z,100377.16
2022-09-24T15:45:51.219Z,100380.84
2022-09-24T15:48:19.291Z,100375.88
2022-09-24T15:50:50.278Z,100376.22
2022-09-24T15:53:21.228Z,100369.06
2022-09-24T15:55:53.976Z,100369.41
2022-09-24T15:58:22.380Z,100377.56
2022-09-24T16:00:50.126Z,100375.72
2022-09-24T16:03:20.948Z,100373.22
2022-09-24T16:05:49.139Z,100371.75
2022-09-24T16:08:17.253Z,100384.63
2022-09-24T16:10:46.221Z,100379.28
2022-09-24T16:13:17.170Z,100351.16
2022-09-24T16:15:45.147Z,100374.28
2022-09-24T16:18:15.276Z,100376.13
2022-09-24T16:20:45.292Z,100369.81
2022-09-24T16:23:15.115Z,100385.63
2022-09-24T16:25:44.095Z,100361.03
2022-09-24T16:28:11.840Z,100392.16
2022-09-24T16:30:40.848Z,100384.16
2022-09-24T16:33:08.583Z,100380.66
2022-09-24T16:35:36.307Z,100380.66
2022-09-24T16:38:04.048Z,100390.66
2022-09-24T16:40:32.903Z,100391.69
2022-09-24T16:43:00.739Z,100390.84
2022-09-24T16:45:28.476Z,100395.16
2022-09-24T16:47:57.596Z,100399.84
2022-09-24T16:50:25.331Z,100392.03
2022-09-24T16:52:54.853Z,100400.34
2022-09-24T16:55:24.387Z,100397.19
2022-09-24T16:57:52.675Z,100398.84
2022-09-24T17:00:20.792Z,100400.53
2022-09-24T17:02:48.961Z,100395.19
2022-09-24T17:05:18.072Z,100394.38
2022-09-24T17:07:45.857Z,100394.38
2022-09-24T17:10:16.048Z,100392.69
2022-09-24T17:12:46.021Z,100382.09
2022-09-24T17:15:15.098Z,100393.03
2022-09-24T17:17:49.375Z,100400.03
2022-09-24T17:20:19.386Z,100402.03
2022-09-24T17:22:48.433Z,100406.34
2022-09-24T17:25:16.415Z,100408.19
2022-09-24T17:27:44.900Z,100397.41
2022-09-24T17:30:13.467Z,100407.38
2022-09-24T17:32:41.213Z,100416.34
2022-09-24T17:35:10.964Z,100418.19
2022-09-24T17:37:40.176Z,100414.06
2022-09-24T17:40:09.028Z,100418.22
2022-09-24T17:42:36.913Z,100423.22
2022-09-24T17:45:05.462Z,100420.06
2022-09-24T17:47:54.600Z,100426.88
2022-09-24T17:50:22.320Z,100424.06
2022-09-24T17:52:51.374Z,100428.22
2022-09-24T17:55:19.113Z,100430.88
2022-09-24T17:57:46.805Z,100422.22
2022-09-24T18:00:15.323Z,100425.44
2022-09-24T18:02:43.213Z,100432.38
2022-09-24T18:05:11.760Z,100435.88
2022-09-24T18:07:39.434Z,100428.91
2022-09-24T18:10:09.126Z,100429.91
2022-09-24T18:12:36.871Z,100439.75
2022-09-24T18:15:04.964Z,100446.72
2022-09-24T18:17:33.008Z,100443.75
2022-09-24T18:20:00.683Z,100437.41
2022-09-24T18:22:28.613Z,100449.91
2022-09-24T18:25:00.678Z,100448.22
2022-09-24T18:27:31.732Z,100431.63
2022-09-24T18:29:59.664Z,100449.41
2022-09-24T18:32:29.556Z,100457.38
2022-09-24T18:34:57.356Z,100451.41
2022-09-24T18:37:25.322Z,100458.38
2022-09-24T18:39:53.140Z,100452.91
2022-09-24T18:42:20.816Z,100462.72
2022-09-24T18:44:50.730Z,100465.38
2022-09-24T18:47:20.247Z,100465.38
2022-09-24T18:49:49.169Z,100467.38
2022-09-24T18:52:16.917Z,100462.03
2022-09-24T18:54:44.677Z,100462.88
2022-09-24T18:57:12.395Z,100470.03
2022-09-24T18:59:44.775Z,100466.72
2022-09-24T19:02:14.710Z,100464.41
2022-09-24T19:04:42.993Z,100470.72
2022-09-24T19:07:10.792Z,100472.69
2022-09-24T19:09:38.495Z,100469.19
2022-09-24T19:12:08.096Z,100470.03
2022-09-24T19:14:35.849Z,100471.03
2022-09-24T19:17:04.696Z,100472.84
2022-09-24T19:19:34.868Z,100463.69
2022-09-24T19:22:02.810Z,100477.03
2022-09-24T19:24:30.605Z,100473.69
2022-09-24T19:26:58.380Z,100480.69
2022-09-24T19:29:26.421Z,100480.00
2022-09-24T19:31:54.147Z,100485.00
2022-09-24T19:34:22.042Z,100488.34
2022-09-24T19:36:51.133Z,100479.34
2022-09-24T19:39:19.207Z,100485.84
2022-09-24T19:41:47.311Z,100478.00
2022-09-24T19:44:16.463Z,100480.84
2022-09-24T19:46:44.744Z,100482.66
2022-09-24T19:49:13.716Z,100474.66
2022-09-24T19:51:41.491Z,100487.34
2022-09-24T19:54:11.626Z,100480.84
2022-09-24T19:56:40.037Z,100479.38
2022-09-24T19:59:08.692Z,100486.31
2022-09-24T20:01:37.604Z,100482.19
2022-09-24T20:04:07.747Z,100484.50
2022-09-24T20:06:37.549Z,100480.00
2022-09-24T20:09:06.408Z,100493.97
2022-09-24T20:11:36.073Z,100483.84
2022-09-24T20:14:06.013Z,100486.69
2022-09-24T20:16:34.026Z,100491.34
2022-09-24T20:19:03.598Z,100483.19
2022-09-24T20:21:34.792Z,100484.84
2022-09-24T20:24:04.110Z,100483.19
2022-09-24T20:26:49.690Z,100488.34
2022-09-24T20:29:20.246Z,100487.00
2022-09-24T20:31:52.490Z,100488.84
2022-09-24T20:34:22.059Z,100490.50
2022-09-24T20:36:50.662Z,100482.69
2022-09-24T20:39:18.935Z,100490.50
2022-09-24T20:41:46.700Z,100488.50
2022-09-24T20:44:14.747Z,100496.81
2022-09-24T20:46:43.892Z,100498.66
2022-09-24T20:49:18.199Z,100496.16
2022-09-24T20:52:06.745Z,100496.31
2022-09-24T20:54:34.531Z,100497.16
2022-09-24T20:57:02.232Z,100491.81
2022-09-24T20:59:30.647Z,100504.63
2022-09-24T21:01:59.803Z,100495.66
2022-09-24T21:04:27.622Z,100490.31
2022-09-24T21:06:55.669Z,100488.66
2022-09-24T21:09:23.526Z,100490.31
2022-09-24T21:11:53.049Z,100493.31
2022-09-24T21:14:21.369Z,100489.00
2022-09-24T21:16:49.148Z,100496.31
2022-09-24T21:19:18.255Z,100498.16
2022-09-24T21:21:46.925Z,100496.66
2022-09-24T21:24:16.849Z,100500.31
2022-09-24T21:26:45.565Z,100500.16
2022-09-24T21:29:16.463Z,100505.31
2022-09-24T21:31:46.084Z,100515.97
2022-09-24T21:34:15.582Z,100515.97
2022-09-24T21:36:46.439Z,100510.47
2022-09-24T21:39:16.657Z,100512.63
2022-09-24T21:41:45.429Z,100509.44
2022-09-24T21:44:15.550Z,100512.78
2022-09-24T21:46:43.739Z,100511.28
2022-09-24T21:49:12.730Z,100515.75
2022-09-24T21:51:41.816Z,100522.25
2022-09-24T21:54:15.440Z,100515.94
2022-09-24T21:56:43.239Z,100515.25
2022-09-24T21:59:25.135Z,100521.25
2022-09-24T22:01:53.210Z,100511.13
2022-09-24T22:04:21.699Z,100516.25
2022-09-24T22:06:50.968Z,100501.94
2022-09-24T22:09:20.962Z,100516.44
2022-09-24T22:11:48.776Z,100523.59
2022-09-24T22:14:16.712Z,100513.59
2022-09-24T22:16:44.802Z,100516.25
2022-09-24T22:19:12.547Z,100514.91
2022-09-24T22:21:40.501Z,100508.44
2022-09-24T22:24:08.248Z,100512.91
2022-09-24T22:26:37.346Z,100506.75
2022-09-24T22:29:05.102Z,100502.28
2022-09-24T22:31:34.312Z,100511.56
2022-09-24T22:34:19.891Z,100509.75
2022-09-24T22:36:48.175Z,100508.75
2022-09-24T22:39:16.448Z,100508.91
2022-09-24T22:41:46.344Z,100504.41
2022-09-24T22:44:14.203Z,100508.25
2022-09-24T22:46:42.043Z,100500.28
2022-09-24T22:49:10.849Z,100505.25
2022-09-24T22:51:39.327Z,100506.09
2022-09-24T22:54:08.247Z,100502.59
2022-09-24T22:56:36.929Z,100512.25
2022-09-24T22:59:06.195Z,100508.91
2022-09-24T23:01:36.022Z,100515.22
2022-09-24T23:04:04.252Z,100518.06
2022-09-24T23:06:33.807Z,100511.91
2022-09-24T23:09:02.200Z,100509.09
2022-09-24T23:11:31.814Z,100513.59
2022-09-24T23:14:01.287Z,100516.41
2022-09-24T23:16:32.358Z,100512.75
2022-09-24T23:19:02.117Z,100511.25
2022-09-24T23:21:31.807Z,100504.78
2022-09-24T23:24:02.288Z,100504.09
2022-09-24T23:26:31.373Z,100499.59
2022-09-24T23:29:00.655Z,100497.94
2022-09-24T23:31:34.148Z,100502.44
2022-09-24T23:34:02.911Z,100506.25
2022-09-24T23:36:32.592Z,100504.56
2022-09-24T23:39:00.845Z,100488.59
2022-09-24T23:41:31.415Z,100507.75
2022-09-24T23:43:59.605Z,100499.94
2022-09-24T23:46:27.773Z,100497.09
2022-09-24T23:48:57.626Z,100505.91
2022-09-24T23:51:25.860Z,100509.41
2022-09-24T23:53:53.756Z,100503.94
2022-09-24T23:56:21.990Z,100508.44
2022-09-24T23:58:49.843Z,100506.09
